sensor_id;sensor_type;location;lat;lon;timestamp;pressure;altitude;pressure_sealevel;temperature;humidity
69127;BME280;56688;50.234;19.292;2023-02-23T00:01:25;98641.31;;;-0.36;79.78
69127;BME280;56688;50.234;19.292;2023-02-23T00:03:56;98643.64;;;-0.37;79.80
69127;BME280;56688;50.234;19.292;2023-02-23T00:06:26;98641.39;;;-0.35;79.80
69127;BME280;56688;50.234;19.292;2023-02-23T00:08:54;98644.27;;;-0.34;79.89
69127;BME280;56688;50.234;19.292;2023-02-23T00:11:21;98644.56;;;-0.33;79.46
69127;BME280;56688;50.234;19.292;2023-02-23T00:13:49;98643.90;;;-0.33;79.70
69127;BME280;56688;50.234;19.292;2023-02-23T00:16:18;98644.19;;;-0.35;79.43
69127;BME280;56688;50.234;19.292;2023-02-23T00:18:48;98642.71;;;-0.39;79.28
69127;BME280;56688;50.234;19.292;2023-02-23T00:21:20;98641.90;;;-0.44;79.19
69127;BME280;56688;50.234;19.292;2023-02-23T00:23:51;98640.27;;;-0.48;79.39
69127;BME280;56688;50.234;19.292;2023-02-23T00:26:20;98639.61;;;-0.50;79.21
69127;BME280;56688;50.234;19.292;2023-02-23T00:28:48;98640.13;;;-0.53;79.35
69127;BME280;56688;50.234;19.292;2023-02-23T00:31:16;98641.57;;;-0.51;79.50
69127;BME280;56688;50.234;19.292;2023-02-23T00:33:44;98641.95;;;-0.49;79.46
69127;BME280;56688;50.234;19.292;2023-02-23T00:36:13;98644.39;;;-0.49;79.87
69127;BME280;56688;50.234;19.292;2023-02-23T00:38:41;98645.36;;;-0.48;79.83
69127;BME280;56688;50.234;19.292;2023-02-23T00:41:11;98643.53;;;-0.49;79.35
69127;BME280;56688;50.234;19.292;2023-02-23T00:43:40;98644.31;;;-0.53;78.89
69127;BME280;56688;50.234;19.292;2023-02-23T00:46:14;98646.22;;;-0.57;79.21
69127;BME280;56688;50.234;19.292;2023-02-23T00:48:44;98647.57;;;-0.62;79.04
69127;BME280;56688;50.234;19.292;2023-02-23T00:51:13;98646.17;;;-0.64;79.01
69127;BME280;56688;50.234;19.292;2023-02-23T00:53:40;98643.84;;;-0.65;78.95
69127;BME280;56688;50.234;19.292;2023-02-23T00:56:10;98643.16;;;-0.66;79.22
69127;BME280;56688;50.234;19.292;2023-02-23T00:58:37;98642.77;;;-0.65;79.38
69127;BME280;56688;50.234;19.292;2023-02-23T01:01:06;98641.64;;;-0.64;79.21
69127;BME280;56688;50.234;19.292;2023-02-23T01:03:35;98641.77;;;-0.66;78.96
69127;BME280;56688;50.234;19.292;2023-02-23T01:06:05;98640.39;;;-0.66;79.02
69127;BME280;56688;50.234;19.292;2023-02-23T01:08:32;98641.02;;;-0.70;78.77
69127;BME280;56688;50.234;19.292;2023-02-23T01:11:05;98643.14;;;-0.74;78.35
69127;BME280;56688;50.234;19.292;2023-02-23T01:13:33;98638.09;;;-0.82;78.46
69127;BME280;56688;50.234;19.292;2023-02-23T01:16:06;98639.77;;;-0.88;78.30
69127;BME280;56688;50.234;19.292;2023-02-23T01:18:34;98638.08;;;-0.91;78.43
69127;BME280;56688;50.234;19.292;2023-02-23T01:21:02;98635.39;;;-0.93;78.51
69127;BME280;56688;50.234;19.292;2023-02-23T01:23:31;98637.71;;;-0.91;78.70
69127;BME280;56688;50.234;19.292;2023-02-23T01:25:58;98634.02;;;-0.91;78.81
69127;BME280;56688;50.234;19.292;2023-02-23T01:28:25;98634.92;;;-0.91;78.46
69127;BME280;56688;50.234;19.292;2023-02-23T01:30:52;98635.85;;;-0.92;78.28
69127;BME280;56688;50.234;19.292;2023-02-23T01:33:19;98632.45;;;-0.95;78.14
69127;BME280;56688;50.234;19.292;2023-02-23T01:35:56;98627.89;;;-1.00;77.69
69127;BME280;56688;50.234;19.292;2023-02-23T01:38:23;98622.34;;;-1.05;77.76
69127;BME280;56688;50.234;19.292;2023-02-23T01:40:50;98623.70;;;-1.12;77.59
69127;BME280;56688;50.234;19.292;2023-02-23T01:43:20;98622.21;;;-1.21;77.64
69127;BME280;56688;50.234;19.292;2023-02-23T01:45:53;98617.70;;;-1.26;77.78
69127;BME280;56688;50.234;19.292;2023-02-23T01:48:26;98617.15;;;-1.28;77.87
69127;BME280;56688;50.234;19.292;2023-02-23T01:51:02;98615.67;;;-1.27;78.10
69127;BME280;56688;50.234;19.292;2023-02-23T01:53:37;98615.73;;;-1.25;78.09
69127;BME280;56688;50.234;19.292;2023-02-23T01:56:09;98614.52;;;-1.25;77.92
69127;BME280;56688;50.234;19.292;2023-02-23T01:58:40;98611.45;;;-1.26;77.63
69127;BME280;56688;50.234;19.292;2023-02-23T02:01:10;98609.57;;;-1.29;77.67
69127;BME280;56688;50.234;19.292;2023-02-23T02:03:40;98606.39;;;-1.33;77.41
69127;BME280;56688;50.234;19.292;2023-02-23T02:06:11;98604.66;;;-1.39;77.42
69127;BME280;56688;50.234;19.292;2023-02-23T02:08:43;98602.58;;;-1.46;77.14
69127;BME280;56688;50.234;19.292;2023-02-23T02:11:14;98600.30;;;-1.51;77.42
69127;BME280;56688;50.234;19.292;2023-02-23T02:14:00;98596.26;;;-1.53;77.68
69127;BME280;56688;50.234;19.292;2023-02-23T02:27:08;98577.63;;;-1.56;77.16
69127;BME280;56688;50.234;19.292;2023-02-23T02:29:48;98580.19;;;-1.60;77.16
69127;BME280;56688;50.234;19.292;2023-02-23T02:32:37;98580.23;;;-1.63;77.10
69127;BME280;56688;50.234;19.292;2023-02-23T02:40:45;98576.08;;;-1.76;78.02
69127;BME280;56688;50.234;19.292;2023-02-23T02:43:37;98577.85;;;-1.76;78.30
69127;BME280;56688;50.234;19.292;2023-02-23T02:46:25;98582.77;;;-1.74;78.75
69127;BME280;56688;50.234;19.292;2023-02-23T02:51:51;98577.77;;;-1.65;78.99
69127;BME280;56688;50.234;19.292;2023-02-23T02:54:24;98573.60;;;-1.63;79.03
69127;BME280;56688;50.234;19.292;2023-02-23T02:56:56;98574.35;;;-1.61;79.10
69127;BME280;56688;50.234;19.292;2023-02-23T02:59:24;98571.08;;;-1.62;78.73
69127;BME280;56688;50.234;19.292;2023-02-23T03:02:15;98569.67;;;-1.64;78.46
69127;BME280;56688;50.234;19.292;2023-02-23T03:05:00;98570.05;;;-1.67;78.57
69127;BME280;56688;50.234;19.292;2023-02-23T03:10:48;98570.42;;;-1.78;78.14
69127;BME280;56688;50.234;19.292;2023-02-23T03:13:49;98569.77;;;-1.80;78.25
69127;BME280;56688;50.234;19.292;2023-02-23T03:22:43;98574.27;;;-1.82;77.70
69127;BME280;56688;50.234;19.292;2023-02-23T03:25:40;98571.31;;;-1.85;77.52
69127;BME280;56688;50.234;19.292;2023-02-23T03:28:31;98571.21;;;-1.88;77.49
69127;BME280;56688;50.234;19.292;2023-02-23T03:31:40;98569.13;;;-1.93;77.38
69127;BME280;56688;50.234;19.292;2023-02-23T03:34:32;98565.64;;;-2.01;77.16
69127;BME280;56688;50.234;19.292;2023-02-23T03:37:23;98567.02;;;-2.06;77.41
69127;BME280;56688;50.234;19.292;2023-02-23T03:42:56;98564.71;;;-2.08;77.50
69127;BME280;56688;50.234;19.292;2023-02-23T03:45:41;98563.95;;;-2.07;77.24
69127;BME280;56688;50.234;19.292;2023-02-23T03:48:26;98566.84;;;-2.05;77.35
69127;BME280;56688;50.234;19.292;2023-02-23T03:51:10;98565.27;;;-2.05;77.65
69127;BME280;56688;50.234;19.292;2023-02-23T03:56:45;98568.60;;;-2.08;77.88
69127;BME280;56688;50.234;19.292;2023-02-23T03:59:41;98568.80;;;-2.14;77.86
69127;BME280;56688;50.234;19.292;2023-02-23T04:02:43;98571.61;;;-2.16;78.03
69127;BME280;56688;50.234;19.292;2023-02-23T04:05:27;98572.18;;;-2.17;78.04
69127;BME280;56688;50.234;19.292;2023-02-23T04:08:13;98572.39;;;-2.15;78.09
69127;BME280;56688;50.234;19.292;2023-02-23T04:11:13;98572.77;;;-2.13;78.14
69127;BME280;56688;50.234;19.292;2023-02-23T04:13:59;98568.45;;;-2.11;78.12
69127;BME280;56688;50.234;19.292;2023-02-23T04:16:31;98568.38;;;-2.08;78.34
69127;BME280;56688;50.234;19.292;2023-02-23T04:19:00;98566.93;;;-2.07;78.27
69127;BME280;56688;50.234;19.292;2023-02-23T04:21:27;98565.71;;;-2.07;77.92
69127;BME280;56688;50.234;19.292;2023-02-23T04:23:54;98568.77;;;-2.08;77.90
69127;BME280;56688;50.234;19.292;2023-02-23T04:26:21;98562.98;;;-2.15;77.63
69127;BME280;56688;50.234;19.292;2023-02-23T04:28:48;98564.75;;;-2.18;77.39
69127;BME280;56688;50.234;19.292;2023-02-23T04:31:14;98563.38;;;-2.21;77.27
69127;BME280;56688;50.234;19.292;2023-02-23T04:33:44;98566.00;;;-2.20;77.39
69127;BME280;56688;50.234;19.292;2023-02-23T04:36:11;98564.46;;;-2.21;77.49
69127;BME280;56688;50.234;19.292;2023-02-23T04:38:38;98563.20;;;-2.21;77.38
69127;BME280;56688;50.234;19.292;2023-02-23T04:41:05;98562.79;;;-2.20;77.14
69127;BME280;56688;50.234;19.292;2023-02-23T04:43:32;98560.27;;;-2.21;76.63
69127;BME280;56688;50.234;19.292;2023-02-23T04:45:58;98562.04;;;-2.27;76.25
69127;BME280;56688;50.234;19.292;2023-02-23T04:48:25;98561.09;;;-2.31;76.27
69127;BME280;56688;50.234;19.292;2023-02-23T04:50:53;98559.89;;;-2.36;76.28
69127;BME280;56688;50.234;19.292;2023-02-23T04:53:21;98555.23;;;-2.42;76.25
69127;BME280;56688;50.234;19.292;2023-02-23T04:55:48;98556.80;;;-2.49;76.13
69127;BME280;56688;50.234;19.292;2023-02-23T04:58:15;98556.11;;;-2.57;76.07
69127;BME280;56688;50.234;19.292;2023-02-23T05:00:43;98560.98;;;-2.62;76.46
69127;BME280;56688;50.234;19.292;2023-02-23T05:03:09;98561.84;;;-2.65;76.73
69127;BME280;56688;50.234;19.292;2023-02-23T05:05:38;98560.50;;;-2.65;77.04
69127;BME280;56688;50.234;19.292;2023-02-23T05:08:05;98560.98;;;-2.75;77.45
69127;BME280;56688;50.234;19.292;2023-02-23T05:10:32;98562.12;;;-2.84;77.32
69127;BME280;56688;50.234;19.292;2023-02-23T05:12:59;98557.48;;;-2.95;77.42
69127;BME280;56688;50.234;19.292;2023-02-23T05:15:27;98558.63;;;-3.02;77.69
69127;BME280;56688;50.234;19.292;2023-02-23T05:17:54;98558.61;;;-3.10;78.08
69127;BME280;56688;50.234;19.292;2023-02-23T05:20:21;98560.04;;;-3.21;78.24
69127;BME280;56688;50.234;19.292;2023-02-23T05:22:48;98559.77;;;-3.22;78.32
69127;BME280;56688;50.234;19.292;2023-02-23T05:25:15;98556.65;;;-3.19;78.63
69127;BME280;56688;50.234;19.292;2023-02-23T05:27:42;98559.05;;;-3.14;78.96
69127;BME280;56688;50.234;19.292;2023-02-23T05:30:09;98556.14;;;-3.07;79.17
69127;BME280;56688;50.234;19.292;2023-02-23T05:32:36;98559.29;;;-3.02;78.93
69127;BME280;56688;50.234;19.292;2023-02-23T05:35:03;98560.23;;;-3.05;79.09
69127;BME280;56688;50.234;19.292;2023-02-23T05:37:30;98562.58;;;-3.09;79.37
69127;BME280;56688;50.234;19.292;2023-02-23T05:39:57;98568.45;;;-3.14;79.24
69127;BME280;56688;50.234;19.292;2023-02-23T05:42:24;98569.04;;;-3.15;79.19
69127;BME280;56688;50.234;19.292;2023-02-23T05:44:51;98566.27;;;-3.18;79.00
69127;BME280;56688;50.234;19.292;2023-02-23T05:47:18;98571.92;;;-3.13;78.85
69127;BME280;56688;50.234;19.292;2023-02-23T05:49:45;98570.77;;;-3.09;79.06
69127;BME280;56688;50.234;19.292;2023-02-23T05:52:12;98568.15;;;-3.04;79.02
69127;BME280;56688;50.234;19.292;2023-02-23T05:54:39;98572.10;;;-3.03;78.90
69127;BME280;56688;50.234;19.292;2023-02-23T05:57:05;98571.73;;;-2.97;79.31
69127;BME280;56688;50.234;19.292;2023-02-23T05:59:33;98573.23;;;-2.91;78.99
69127;BME280;56688;50.234;19.292;2023-02-23T06:02:00;98574.69;;;-2.84;79.10
69127;BME280;56688;50.234;19.292;2023-02-23T06:04:32;98574.63;;;-2.78;78.98
69127;BME280;56688;50.234;19.292;2023-02-23T06:06:59;98573.79;;;-2.73;78.65
69127;BME280;56688;50.234;19.292;2023-02-23T06:09:26;98569.98;;;-2.71;78.53
69127;BME280;56688;50.234;19.292;2023-02-23T06:11:53;98572.23;;;-2.69;78.45
69127;BME280;56688;50.234;19.292;2023-02-23T06:14:20;98569.48;;;-2.64;78.46
69127;BME280;56688;50.234;19.292;2023-02-23T06:16:49;98569.90;;;-2.55;78.76
69127;BME280;56688;50.234;19.292;2023-02-23T06:19:16;98571.93;;;-2.46;78.98
69127;BME280;56688;50.234;19.292;2023-02-23T06:21:42;98572.09;;;-2.38;79.11
69127;BME280;56688;50.234;19.292;2023-02-23T06:24:10;98571.98;;;-2.37;79.17
69127;BME280;56688;50.234;19.292;2023-02-23T06:26:37;98573.45;;;-2.35;80.24
69127;BME280;56688;50.234;19.292;2023-02-23T06:29:04;98577.84;;;-2.26;81.50
69127;BME280;56688;50.234;19.292;2023-02-23T06:31:31;98576.64;;;-2.13;82.05
69127;BME280;56688;50.234;19.292;2023-02-23T06:33:58;98578.00;;;-2.01;82.43
69127;BME280;56688;50.234;19.292;2023-02-23T06:36:25;98578.31;;;-1.85;82.62
69127;BME280;56688;50.234;19.292;2023-02-23T06:38:55;98580.17;;;-1.69;82.79
69127;BME280;56688;50.234;19.292;2023-02-23T06:41:22;98580.97;;;-1.52;83.11
69127;BME280;56688;50.234;19.292;2023-02-23T06:43:49;98577.40;;;-1.38;82.80
69127;BME280;56688;50.234;19.292;2023-02-23T06:46:18;98584.69;;;-1.28;82.46
69127;BME280;56688;50.234;19.292;2023-02-23T06:48:45;98583.33;;;-1.17;82.19
69127;BME280;56688;50.234;19.292;2023-02-23T06:51:12;98584.45;;;-1.06;82.14
69127;BME280;56688;50.234;19.292;2023-02-23T06:53:39;98580.96;;;-0.97;82.01
69127;BME280;56688;50.234;19.292;2023-02-23T06:56:06;98582.49;;;-0.80;82.18
69127;BME280;56688;50.234;19.292;2023-02-23T06:58:33;98583.33;;;-0.58;82.58
69127;BME280;56688;50.234;19.292;2023-02-23T07:00:59;98584.33;;;-0.37;82.25
69127;BME280;56688;50.234;19.292;2023-02-23T07:03:26;98584.46;;;-0.14;81.90
69127;BME280;56688;50.234;19.292;2023-02-23T07:05:53;98582.15;;;0.09;81.26
69127;BME280;56688;50.234;19.292;2023-02-23T07:08:20;98581.42;;;0.36;81.01
69127;BME280;56688;50.234;19.292;2023-02-23T07:10:47;98583.47;;;0.60;79.76
69127;BME280;56688;50.234;19.292;2023-02-23T07:13:14;98585.48;;;0.77;79.12
69127;BME280;56688;50.234;19.292;2023-02-23T07:15:42;98580.98;;;1.02;79.26
69127;BME280;56688;50.234;19.292;2023-02-23T07:18:09;98579.34;;;1.40;79.04
69127;BME280;56688;50.234;19.292;2023-02-23T07:20:36;98576.05;;;1.75;77.63
69127;BME280;56688;50.234;19.292;2023-02-23T07:23:03;98578.00;;;2.01;76.78
69127;BME280;56688;50.234;19.292;2023-02-23T07:25:30;98578.14;;;2.26;75.47
69127;BME280;56688;50.234;19.292;2023-02-23T07:27:57;98575.45;;;2.51;74.20
69127;BME280;56688;50.234;19.292;2023-02-23T07:30:25;98574.65;;;2.73;73.14
69127;BME280;56688;50.234;19.292;2023-02-23T07:32:53;98570.98;;;2.96;72.47
69127;BME280;56688;50.234;19.292;2023-02-23T07:35:19;98574.95;;;3.38;71.73
69127;BME280;56688;50.234;19.292;2023-02-23T07:37:46;98569.95;;;3.78;69.95
69127;BME280;56688;50.234;19.292;2023-02-23T07:40:15;98568.79;;;4.14;69.03
69127;BME280;56688;50.234;19.292;2023-02-23T07:42:42;98570.89;;;4.66;67.24
69127;BME280;56688;50.234;19.292;2023-02-23T07:45:10;98568.63;;;5.19;65.91
69127;BME280;56688;50.234;19.292;2023-02-23T07:47:37;98569.70;;;5.65;64.28
69127;BME280;56688;50.234;19.292;2023-02-23T07:50:06;98563.75;;;6.13;62.88
69127;BME280;56688;50.234;19.292;2023-02-23T07:52:36;98560.16;;;6.61;61.37
69127;BME280;56688;50.234;19.292;2023-02-23T07:55:06;98558.20;;;7.10;60.27
69127;BME280;56688;50.234;19.292;2023-02-23T07:57:34;98555.20;;;7.61;58.52
69127;BME280;56688;50.234;19.292;2023-02-23T08:00:01;98552.50;;;8.06;56.62
69127;BME280;56688;50.234;19.292;2023-02-23T08:02:38;98555.50;;;8.52;55.08
69127;BME280;56688;50.234;19.292;2023-02-23T08:05:05;98556.13;;;8.84;53.77
69127;BME280;56688;50.234;19.292;2023-02-23T08:07:32;98556.40;;;8.90;53.36
69127;BME280;56688;50.234;19.292;2023-02-23T08:09:59;98549.91;;;8.95;53.21
69127;BME280;56688;50.234;19.292;2023-02-23T08:12:26;98552.74;;;8.99;52.64
69127;BME280;56688;50.234;19.292;2023-02-23T08:14:53;98555.08;;;9.13;52.91
69127;BME280;56688;50.234;19.292;2023-02-23T08:17:20;98549.54;;;9.39;52.47
69127;BME280;56688;50.234;19.292;2023-02-23T08:19:47;98552.38;;;9.54;51.38
69127;BME280;56688;50.234;19.292;2023-02-23T08:22:15;98550.25;;;9.60;51.33
69127;BME280;56688;50.234;19.292;2023-02-23T08:24:42;98549.30;;;9.65;50.96
69127;BME280;56688;50.234;19.292;2023-02-23T08:27:09;98548.51;;;9.55;50.66
69127;BME280;56688;50.234;19.292;2023-02-23T08:29:38;98552.06;;;9.45;51.12
69127;BME280;56688;50.234;19.292;2023-02-23T08:32:05;98550.63;;;9.45;51.46
69127;BME280;56688;50.234;19.292;2023-02-23T08:34:37;98552.27;;;9.58;51.26
69127;BME280;56688;50.234;19.292;2023-02-23T08:37:03;98549.33;;;9.61;51.24
69127;BME280;56688;50.234;19.292;2023-02-23T08:39:30;98550.92;;;9.66;51.27
69127;BME280;56688;50.234;19.292;2023-02-23T08:41:57;98548.20;;;9.73;51.21
69127;BME280;56688;50.234;19.292;2023-02-23T08:44:24;98542.23;;;9.77;50.60
69127;BME280;56688;50.234;19.292;2023-02-23T08:46:51;98537.30;;;9.82;51.09
69127;BME280;56688;50.234;19.292;2023-02-23T08:49:19;98537.89;;;9.96;50.52
69127;BME280;56688;50.234;19.292;2023-02-23T08:51:46;98535.06;;;10.06;50.23
69127;BME280;56688;50.234;19.292;2023-02-23T08:54:13;98531.56;;;10.17;50.19
69127;BME280;56688;50.234;19.292;2023-02-23T08:56:42;98531.11;;;10.40;49.64
69127;BME280;56688;50.234;19.292;2023-02-23T08:59:10;98527.05;;;10.64;49.45
69127;BME280;56688;50.234;19.292;2023-02-23T09:01:38;98526.46;;;10.93;48.35
69127;BME280;56688;50.234;19.292;2023-02-23T09:04:04;98525.98;;;11.14;48.49
69127;BME280;56688;50.234;19.292;2023-02-23T09:06:32;98520.35;;;11.38;47.07
69127;BME280;56688;50.234;19.292;2023-02-23T09:09:00;98524.21;;;11.53;45.88
69127;BME280;56688;50.234;19.292;2023-02-23T09:11:27;98522.85;;;11.63;45.45
69127;BME280;56688;50.234;19.292;2023-02-23T09:13:54;98522.50;;;11.72;45.50
69127;BME280;56688;50.234;19.292;2023-02-23T09:16:21;98525.04;;;11.68;45.04
69127;BME280;56688;50.234;19.292;2023-02-23T09:18:48;98525.24;;;11.68;45.31
69127;BME280;56688;50.234;19.292;2023-02-23T09:21:17;98525.87;;;11.76;46.14
69127;BME280;56688;50.234;19.292;2023-02-23T09:23:47;98523.41;;;11.83;45.11
69127;BME280;56688;50.234;19.292;2023-02-23T09:26:17;98525.93;;;11.91;45.78
69127;BME280;56688;50.234;19.292;2023-02-23T09:28:45;98525.11;;;11.91;45.17
69127;BME280;56688;50.234;19.292;2023-02-23T09:31:16;98524.94;;;11.92;45.09
69127;BME280;56688;50.234;19.292;2023-02-23T09:33:44;98525.06;;;11.92;44.86
69127;BME280;56688;50.234;19.292;2023-02-23T09:36:14;98517.80;;;11.96;44.45
69127;BME280;56688;50.234;19.292;2023-02-23T09:38:45;98505.38;;;11.97;44.49
69127;BME280;56688;50.234;19.292;2023-02-23T09:44:01;98497.58;;;12.03;43.96
69127;BME280;56688;50.234;19.292;2023-02-23T09:49:05;98499.81;;;11.98;44.39
69127;BME280;56688;50.234;19.292;2023-02-23T09:51:39;98500.36;;;11.95;44.81
69127;BME280;56688;50.234;19.292;2023-02-23T09:54:10;98504.61;;;11.89;44.49
69127;BME280;56688;50.234;19.292;2023-02-23T09:56:40;98504.84;;;11.80;44.51
69127;BME280;56688;50.234;19.292;2023-02-23T09:59:12;98506.17;;;11.74;45.10
69127;BME280;56688;50.234;19.292;2023-02-23T10:12:34;98521.09;;;10.95;46.57
69127;BME280;56688;50.234;19.292;2023-02-23T10:23:10;98502.70;;;11.20;46.45
69127;BME280;56688;50.234;19.292;2023-02-23T10:25:45;98497.87;;;11.12;46.70
69127;BME280;56688;50.234;19.292;2023-02-23T10:28:16;98497.27;;;11.20;47.33
69127;BME280;56688;50.234;19.292;2023-02-23T10:30:47;98492.98;;;11.33;46.63
69127;BME280;56688;50.234;19.292;2023-02-23T10:33:23;98493.63;;;11.48;45.92
69127;BME280;56688;50.234;19.292;2023-02-23T10:35:56;98486.29;;;11.63;46.15
69127;BME280;56688;50.234;19.292;2023-02-23T10:38:39;98485.42;;;11.63;46.22
69127;BME280;56688;50.234;19.292;2023-02-23T10:41:07;98487.89;;;11.56;46.08
69127;BME280;56688;50.234;19.292;2023-02-23T10:43:35;98485.09;;;11.40;46.13
69127;BME280;56688;50.234;19.292;2023-02-23T10:46:03;98480.31;;;11.34;46.29
69127;BME280;56688;50.234;19.292;2023-02-23T10:48:35;98476.80;;;11.38;46.33
69127;BME280;56688;50.234;19.292;2023-02-23T10:51:06;98476.84;;;11.49;45.69
69127;BME280;56688;50.234;19.292;2023-02-23T10:53:40;98472.14;;;11.58;46.13
69127;BME280;56688;50.234;19.292;2023-02-23T10:56:10;98469.75;;;11.64;46.11
69127;BME280;56688;50.234;19.292;2023-02-23T11:01:40;98467.30;;;11.84;45.39
69127;BME280;56688;50.234;19.292;2023-02-23T11:04:29;98460.55;;;11.79;45.34
69127;BME280;56688;50.234;19.292;2023-02-23T11:07:16;98461.22;;;11.77;45.66
69127;BME280;56688;50.234;19.292;2023-02-23T11:09:43;98463.09;;;11.89;45.04
69127;BME280;56688;50.234;19.292;2023-02-23T11:12:17;98457.36;;;11.96;44.84
69127;BME280;56688;50.234;19.292;2023-02-23T11:14:48;98453.42;;;12.04;44.90
69127;BME280;56688;50.234;19.292;2023-02-23T11:17:32;98447.86;;;12.03;45.32
69127;BME280;56688;50.234;19.292;2023-02-23T11:20:05;98443.22;;;12.02;46.13
69127;BME280;56688;50.234;19.292;2023-02-23T11:22:35;98444.53;;;11.97;46.87
69127;BME280;56688;50.234;19.292;2023-02-23T11:25:14;98442.42;;;11.96;46.09
69127;BME280;56688;50.234;19.292;2023-02-23T11:27:46;98441.16;;;11.92;46.78
69127;BME280;56688;50.234;19.292;2023-02-23T11:30:19;98440.52;;;11.89;47.05
69127;BME280;56688;50.234;19.292;2023-02-23T11:32:51;98440.05;;;11.90;46.44
69127;BME280;56688;50.234;19.292;2023-02-23T11:37:46;98436.44;;;12.12;45.46
69127;BME280;56688;50.234;19.292;2023-02-23T11:40:19;98429.79;;;12.22;45.75
69127;BME280;56688;50.234;19.292;2023-02-23T11:45:38;98428.67;;;12.27;45.66
69127;BME280;56688;50.234;19.292;2023-02-23T11:48:20;98427.71;;;12.27;46.04
69127;BME280;56688;50.234;19.292;2023-02-23T11:50:48;98424.16;;;12.25;45.91
69127;BME280;56688;50.234;19.292;2023-02-23T11:53:27;98422.02;;;12.34;45.95
69127;BME280;56688;50.234;19.292;2023-02-23T11:55:57;98424.98;;;12.46;45.67
69127;BME280;56688;50.234;19.292;2023-02-23T12:01:14;98419.51;;;12.54;45.16
69127;BME280;56688;50.234;19.292;2023-02-23T12:03:47;98418.52;;;12.56;45.38
69127;BME280;56688;50.234;19.292;2023-02-23T12:09:03;98409.17;;;12.61;45.23
69127;BME280;56688;50.234;19.292;2023-02-23T12:11:36;98406.86;;;12.61;46.10
69127;BME280;56688;50.234;19.292;2023-02-23T12:14:21;98407.95;;;12.64;45.80
69127;BME280;56688;50.234;19.292;2023-02-23T12:16:55;98402.98;;;12.75;44.80
69127;BME280;56688;50.234;19.292;2023-02-23T12:19:40;98401.36;;;12.77;44.49
69127;BME280;56688;50.234;19.292;2023-02-23T12:22:14;98401.64;;;12.70;45.74
69127;BME280;56688;50.234;19.292;2023-02-23T12:24:43;98396.69;;;12.64;45.34
69127;BME280;56688;50.234;19.292;2023-02-23T12:32:43;98388.79;;;12.55;46.05
69127;BME280;56688;50.234;19.292;2023-02-23T12:35:13;98383.45;;;12.58;45.65
69127;BME280;56688;50.234;19.292;2023-02-23T12:37:55;98382.20;;;12.56;46.14
69127;BME280;56688;50.234;19.292;2023-02-23T12:40:32;98376.39;;;12.57;46.27
69127;BME280;56688;50.234;19.292;2023-02-23T12:43:04;98371.96;;;12.56;46.32
69127;BME280;56688;50.234;19.292;2023-02-23T12:50:39;98363.63;;;12.44;46.78
69127;BME280;56688;50.234;19.292;2023-02-23T12:53:18;98360.79;;;12.48;46.80
69127;BME280;56688;50.234;19.292;2023-02-23T12:55:49;98354.41;;;12.52;47.15
69127;BME280;56688;50.234;19.292;2023-02-23T12:58:23;98354.08;;;12.57;47.36
69127;BME280;56688;50.234;19.292;2023-02-23T13:00:58;98354.58;;;12.58;46.93
69127;BME280;56688;50.234;19.292;2023-02-23T13:06:27;98347.02;;;12.56;47.38
69127;BME280;56688;50.234;19.292;2023-02-23T13:09:35;98343.98;;;12.54;46.81
69127;BME280;56688;50.234;19.292;2023-02-23T13:14:56;98337.79;;;12.45;47.33
69127;BME280;56688;50.234;19.292;2023-02-23T13:17:42;98333.03;;;12.34;47.78
69127;BME280;56688;50.234;19.292;2023-02-23T13:20:25;98332.45;;;12.29;48.13
69127;BME280;56688;50.234;19.292;2023-02-23T13:31:21;98318.42;;;12.23;48.44
69127;BME280;56688;50.234;19.292;2023-02-23T13:33:51;98314.07;;;12.17;48.26
69127;BME280;56688;50.234;19.292;2023-02-23T13:36:19;98314.53;;;12.15;48.94
69127;BME280;56688;50.234;19.292;2023-02-23T13:44:38;98309.79;;;12.03;48.85
69127;BME280;56688;50.234;19.292;2023-02-23T13:49:57;98308.44;;;12.14;48.59
69127;BME280;56688;50.234;19.292;2023-02-23T13:52:31;98299.33;;;12.12;48.94
69127;BME280;56688;50.234;19.292;2023-02-23T13:55:00;98295.40;;;12.07;49.09
69127;BME280;56688;50.234;19.292;2023-02-23T13:57:31;98291.67;;;12.03;48.91
69127;BME280;56688;50.234;19.292;2023-02-23T13:59:59;98292.52;;;11.99;49.29
69127;BME280;56688;50.234;19.292;2023-02-23T14:02:42;98287.39;;;11.90;49.40
69127;BME280;56688;50.234;19.292;2023-02-23T14:07:58;98278.40;;;11.77;50.00
69127;BME280;56688;50.234;19.292;2023-02-23T14:10:39;98277.43;;;11.72;50.05
69127;BME280;56688;50.234;19.292;2023-02-23T14:15:47;98279.79;;;11.65;50.65
69127;BME280;56688;50.234;19.292;2023-02-23T14:21:10;98273.23;;;11.61;50.76
69127;BME280;56688;50.234;19.292;2023-02-23T14:26:35;98274.25;;;11.48;50.89
69127;BME280;56688;50.234;19.292;2023-02-23T14:31:52;98271.90;;;11.35;51.85
69127;BME280;56688;50.234;19.292;2023-02-23T14:34:20;98266.70;;;11.33;51.88
69127;BME280;56688;50.234;19.292;2023-02-23T14:36:49;98266.21;;;11.28;51.93
69127;BME280;56688;50.234;19.292;2023-02-23T14:39:24;98269.11;;;11.22;51.50
69127;BME280;56688;50.234;19.292;2023-02-23T14:41:55;98269.73;;;11.07;51.80
69127;BME280;56688;50.234;19.292;2023-02-23T14:44:24;98269.44;;;10.93;52.18
69127;BME280;56688;50.234;19.292;2023-02-23T14:47:02;98269.35;;;10.79;52.62
69127;BME280;56688;50.234;19.292;2023-02-23T14:49:41;98266.36;;;10.70;52.90
69127;BME280;56688;50.234;19.292;2023-02-23T14:52:16;98264.60;;;10.65;53.10
69127;BME280;56688;50.234;19.292;2023-02-23T14:54:46;98263.14;;;10.56;53.68
69127;BME280;56688;50.234;19.292;2023-02-23T14:57:17;98258.39;;;10.48;53.64
69127;BME280;56688;50.234;19.292;2023-02-23T14:59:55;98254.67;;;10.36;53.99
69127;BME280;56688;50.234;19.292;2023-02-23T15:02:23;98252.27;;;10.26;54.32
69127;BME280;56688;50.234;19.292;2023-02-23T15:04:51;98248.46;;;10.16;54.37
69127;BME280;56688;50.234;19.292;2023-02-23T15:07:27;98247.05;;;10.05;54.58
69127;BME280;56688;50.234;19.292;2023-02-23T15:09:58;98249.86;;;9.95;55.00
69127;BME280;56688;50.234;19.292;2023-02-23T15:12:28;98246.00;;;9.85;55.29
69127;BME280;56688;50.234;19.292;2023-02-23T15:15:02;98243.58;;;9.72;55.55